sensor_id;sensor_type;location;lat;lon;timestamp;temperature;humidity
6756;DHT22;3415;51.148;7.014;2023-07-09T00:00:14;22.90;99.90
6756;DHT22;3415;51.148;7.014;2023-07-09T00:02:43;22.90;99.90
6756;DHT22;3415;51.148;7.014;2023-07-09T00:05:17;22.90;99.90
6756;DHT22;3415;51.148;7.014;2023-07-09T00:07:44;22.80;99.90
6756;DHT22;3415;51.148;7.014;2023-07-09T00:10:16;22.70;99.90
6756;DHT22;3415;51.148;7.014;2023-07-09T00:12:45;22.70;99.90
6756;DHT22;3415;51.148;7.014;2023-07-09T00:15:13;22.70;99.90
6756;DHT22;3415;51.148;7.014;2023-07-09T00:17:44;22.70;99.90
6756;DHT22;3415;51.148;7.014;2023-07-09T00:20:13;22.60;99.90
6756;DHT22;3415;51.148;7.014;2023-07-09T00:22:42;22.60;99.90
6756;DHT22;3415;51.148;7.014;2023-07-09T00:25:13;22.60;99.90
6756;DHT22;3415;51.148;7.014;2023-07-09T00:27:42;22.60;99.90
6756;DHT22;3415;51.148;7.014;2023-07-09T00:30:16;22.50;99.90
6756;DHT22;3415;51.148;7.014;2023-07-09T00:32:44;22.50;99.90
6756;DHT22;3415;51.148;7.014;2023-07-09T00:35:12;22.50;99.90
6756;DHT22;3415;51.148;7.014;2023-07-09T00:37:41;22.50;99.90
6756;DHT22;3415;51.148;7.014;2023-07-09T00:40:15;22.50;99.90
6756;DHT22;3415;51.148;7.014;2023-07-09T00:42:45;22.40;99.90
6756;DHT22;3415;51.148;7.014;2023-07-09T00:45:25;22.30;99.90
6756;DHT22;3415;51.148;7.014;2023-07-09T00:47:55;22.30;99.90
6756;DHT22;3415;51.148;7.014;2023-07-09T00:50:33;23.10;99.90
6756;DHT22;3415;51.148;7.014;2023-07-09T00:53:04;22.30;99.90
6756;DHT22;3415;51.148;7.014;2023-07-09T00:55:41;22.30;99.90
6756;DHT22;3415;51.148;7.014;2023-07-09T00:58:11;22.30;99.90
6756;DHT22;3415;51.148;7.014;2023-07-09T01:00:46;22.30;99.90
6756;DHT22;3415;51.148;7.014;2023-07-09T01:03:25;22.30;99.90
6756;DHT22;3415;51.148;7.014;2023-07-09T01:05:56;22.30;99.90
6756;DHT22;3415;51.148;7.014;2023-07-09T01:08:25;22.30;99.90
6756;DHT22;3415;51.148;7.014;2023-07-09T01:10:56;22.30;99.90
6756;DHT22;3415;51.148;7.014;2023-07-09T01:13:24;22.30;99.90
6756;DHT22;3415;51.148;7.014;2023-07-09T01:15:54;22.30;99.90
6756;DHT22;3415;51.148;7.014;2023-07-09T01:18:22;22.30;99.90
6756;DHT22;3415;51.148;7.014;2023-07-09T01:20:50;22.30;99.90
6756;DHT22;3415;51.148;7.014;2023-07-09T01:23:20;22.30;99.90
6756;DHT22;3415;51.148;7.014;2023-07-09T01:25:50;22.20;99.90
6756;DHT22;3415;51.148;7.014;2023-07-09T01:28:20;22.20;99.90
6756;DHT22;3415;51.148;7.014;2023-07-09T01:30:47;22.20;99.90
6756;DHT22;3415;51.148;7.014;2023-07-09T01:33:20;22.10;99.90
6756;DHT22;3415;51.148;7.014;2023-07-09T01:35:48;22.10;99.90
6756;DHT22;3415;51.148;7.014;2023-07-09T01:38:15;22.10;99.90
6756;DHT22;3415;51.148;7.014;2023-07-09T01:40:43;22.10;99.90
6756;DHT22;3415;51.148;7.014;2023-07-09T01:43:12;22.10;99.90
6756;DHT22;3415;51.148;7.014;2023-07-09T01:45:39;22.10;99.90
6756;DHT22;3415;51.148;7.014;2023-07-09T01:48:07;22.10;99.90
6756;DHT22;3415;51.148;7.014;2023-07-09T01:50:41;22.00;99.90
6756;DHT22;3415;51.148;7.014;2023-07-09T01:53:09;22.30;99.90
6756;DHT22;3415;51.148;7.014;2023-07-09T01:55:37;22.00;99.90
6756;DHT22;3415;51.148;7.014;2023-07-09T01:58:06;21.90;99.90
6756;DHT22;3415;51.148;7.014;2023-07-09T02:00:34;22.00;99.90
6756;DHT22;3415;51.148;7.014;2023-07-09T02:03:01;21.90;99.90
6756;DHT22;3415;51.148;7.014;2023-07-09T02:05:31;21.80;99.90
6756;DHT22;3415;51.148;7.014;2023-07-09T02:07:58;21.80;99.90
6756;DHT22;3415;51.148;7.014;2023-07-09T02:10:25;21.70;99.90
6756;DHT22;3415;51.148;7.014;2023-07-09T02:12:52;21.70;99.90
6756;DHT22;3415;51.148;7.014;2023-07-09T02:15:21;21.60;99.90
6756;DHT22;3415;51.148;7.014;2023-07-09T02:17:48;21.60;99.90
6756;DHT22;3415;51.148;7.014;2023-07-09T02:20:18;21.50;99.90
6756;DHT22;3415;51.148;7.014;2023-07-09T02:22:45;21.50;99.90
6756;DHT22;3415;51.148;7.014;2023-07-09T02:25:12;21.40;99.90
6756;DHT22;3415;51.148;7.014;2023-07-09T02:27:39;21.40;99.90
6756;DHT22;3415;51.148;7.014;2023-07-09T02:30:07;21.20;99.90
6756;DHT22;3415;51.148;7.014;2023-07-09T02:32:38;21.20;99.90
6756;DHT22;3415;51.148;7.014;2023-07-09T02:35:05;21.10;99.90
6756;DHT22;3415;51.148;7.014;2023-07-09T02:37:32;21.10;99.90
6756;DHT22;3415;51.148;7.014;2023-07-09T02:39:59;21.00;99.90
6756;DHT22;3415;51.148;7.014;2023-07-09T02:42:26;21.00;99.90
6756;DHT22;3415;51.148;7.014;2023-07-09T02:44:54;20.90;99.90
6756;DHT22;3415;51.148;7.014;2023-07-09T02:47:21;20.80;99.90
6756;DHT22;3415;51.148;7.014;2023-07-09T02:49:49;20.80;99.90
6756;DHT22;3415;51.148;7.014;2023-07-09T02:52:16;20.80;99.90
6756;DHT22;3415;51.148;7.014;2023-07-09T02:54:43;20.80;99.90
6756;DHT22;3415;51.148;7.014;2023-07-09T02:57:10;20.80;99.90
6756;DHT22;3415;51.148;7.014;2023-07-09T02:59:37;20.80;1.00
6756;DHT22;3415;51.148;7.014;2023-07-09T03:02:04;20.70;1.00
6756;DHT22;3415;51.148;7.014;2023-07-09T03:04:31;20.70;1.00
6756;DHT22;3415;51.148;7.014;2023-07-09T03:07:00;20.60;1.00
6756;DHT22;3415;51.148;7.014;2023-07-09T03:09:27;20.60;1.00
6756;DHT22;3415;51.148;7.014;2023-07-09T03:11:54;20.60;1.00
6756;DHT22;3415;51.148;7.014;2023-07-09T03:14:21;20.60;1.00
6756;DHT22;3415;51.148;7.014;2023-07-09T03:16:48;20.60;1.00
6756;DHT22;3415;51.148;7.014;2023-07-09T03:19:15;20.50;1.00
6756;DHT22;3415;51.148;7.014;2023-07-09T03:21:42;20.50;1.00
6756;DHT22;3415;51.148;7.014;2023-07-09T03:24:11;20.40;1.00
6756;DHT22;3415;51.148;7.014;2023-07-09T03:26:43;20.50;1.00
6756;DHT22;3415;51.148;7.014;2023-07-09T03:29:11;20.40;1.00
6756;DHT22;3415;51.148;7.014;2023-07-09T03:31:38;20.40;1.00
6756;DHT22;3415;51.148;7.014;2023-07-09T03:34:05;20.40;1.00
6756;DHT22;3415;51.148;7.014;2023-07-09T03:36:32;20.40;1.00
6756;DHT22;3415;51.148;7.014;2023-07-09T03:38:59;20.30;1.00
6756;DHT22;3415;51.148;7.014;2023-07-09T03:41:27;20.40;1.00
6756;DHT22;3415;51.148;7.014;2023-07-09T03:43:54;20.30;1.00
6756;DHT22;3415;51.148;7.014;2023-07-09T03:46:22;20.40;1.00
6756;DHT22;3415;51.148;7.014;2023-07-09T03:48:49;20.30;1.00
6756;DHT22;3415;51.148;7.014;2023-07-09T03:51:16;20.30;1.00
6756;DHT22;3415;51.148;7.014;2023-07-09T03:53:43;20.40;1.00
6756;DHT22;3415;51.148;7.014;2023-07-09T03:56:10;20.30;1.00
6756;DHT22;3415;51.148;7.014;2023-07-09T03:58:39;20.40;1.00
6756;DHT22;3415;51.148;7.014;2023-07-09T04:01:06;20.50;1.00
6756;DHT22;3415;51.148;7.014;2023-07-09T04:03:33;20.50;1.00
6756;DHT22;3415;51.148;7.014;2023-07-09T04:06:00;20.60;1.00
6756;DHT22;3415;51.148;7.014;2023-07-09T04:08:27;20.60;1.00
6756;DHT22;3415;51.148;7.014;2023-07-09T04:10:54;20.60;1.00
6756;DHT22;3415;51.148;7.014;2023-07-09T04:13:22;20.60;1.00
6756;DHT22;3415;51.148;7.014;2023-07-09T04:15:50;20.60;1.00
6756;DHT22;3415;51.148;7.014;2023-07-09T04:18:17;18.70;1.00
6756;DHT22;3415;51.148;7.014;2023-07-09T04:20:48;20.70;1.00
6756;DHT22;3415;51.148;7.014;2023-07-09T04:23:16;20.70;1.00
6756;DHT22;3415;51.148;7.014;2023-07-09T04:25:43;20.70;1.00
6756;DHT22;3415;51.148;7.014;2023-07-09T04:28:10;20.80;1.00
6756;DHT22;3415;51.148;7.014;2023-07-09T04:30:37;20.80;1.00
6756;DHT22;3415;51.148;7.014;2023-07-09T04:33:06;20.80;1.00
6756;DHT22;3415;51.148;7.014;2023-07-09T04:35:35;20.90;1.00
6756;DHT22;3415;51.148;7.014;2023-07-09T04:40:29;21.00;1.00
6756;DHT22;3415;51.148;7.014;2023-07-09T04:42:56;21.10;1.00
6756;DHT22;3415;51.148;7.014;2023-07-09T04:45:23;21.10;1.00
6756;DHT22;3415;51.148;7.014;2023-07-09T04:47:50;21.30;1.00
6756;DHT22;3415;51.148;7.014;2023-07-09T04:50:19;21.50;1.00
6756;DHT22;3415;51.148;7.014;2023-07-09T04:52:46;21.50;1.00
6756;DHT22;3415;51.148;7.014;2023-07-09T04:55:13;21.70;1.00
6756;DHT22;3415;51.148;7.014;2023-07-09T04:57:40;21.70;1.00
6756;DHT22;3415;51.148;7.014;2023-07-09T05:00:08;21.80;99.90
6756;DHT22;3415;51.148;7.014;2023-07-09T05:02:36;22.00;99.90
6756;DHT22;3415;51.148;7.014;2023-07-09T05:05:03;22.00;99.90
6756;DHT22;3415;51.148;7.014;2023-07-09T05:07:32;22.10;99.90
6756;DHT22;3415;51.148;7.014;2023-07-09T05:09:59;22.20;99.90
6756;DHT22;3415;51.148;7.014;2023-07-09T05:12:27;22.30;99.90
6756;DHT22;3415;51.148;7.014;2023-07-09T05:14:54;22.60;99.90
6756;DHT22;3415;51.148;7.014;2023-07-09T05:17:22;22.80;99.90
6756;DHT22;3415;51.148;7.014;2023-07-09T05:19:50;22.80;99.90
6756;DHT22;3415;51.148;7.014;2023-07-09T05:22:17;22.90;99.90
6756;DHT22;3415;51.148;7.014;2023-07-09T05:24:45;23.20;99.90
6756;DHT22;3415;51.148;7.014;2023-07-09T05:27:12;23.20;99.90
6756;DHT22;3415;51.148;7.014;2023-07-09T05:29:39;23.40;99.90
6756;DHT22;3415;51.148;7.014;2023-07-09T05:32:06;23.60;99.90
6756;DHT22;3415;51.148;7.014;2023-07-09T05:34:33;23.80;99.90
6756;DHT22;3415;51.148;7.014;2023-07-09T05:37:00;24.10;99.90
6756;DHT22;3415;51.148;7.014;2023-07-09T05:39:27;24.50;99.90
6756;DHT22;3415;51.148;7.014;2023-07-09T05:41:56;24.50;99.90
6756;DHT22;3415;51.148;7.014;2023-07-09T05:44:22;24.80;99.90
6756;DHT22;3415;51.148;7.014;2023-07-09T05:46:49;25.00;99.90
6756;DHT22;3415;51.148;7.014;2023-07-09T05:49:18;25.30;99.90
6756;DHT22;3415;51.148;7.014;2023-07-09T05:51:45;25.50;99.90
6756;DHT22;3415;51.148;7.014;2023-07-09T05:54:12;25.80;99.90
6756;DHT22;3415;51.148;7.014;2023-07-09T05:56:40;26.10;99.90
6756;DHT22;3415;51.148;7.014;2023-07-09T05:59:09;26.40;99.90
6756;DHT22;3415;51.148;7.014;2023-07-09T06:01:36;26.60;99.90
6756;DHT22;3415;51.148;7.014;2023-07-09T06:04:03;26.90;99.90
6756;DHT22;3415;51.148;7.014;2023-07-09T06:06:30;27.20;99.90
6756;DHT22;3415;51.148;7.014;2023-07-09T06:08:57;27.50;99.90
6756;DHT22;3415;51.148;7.014;2023-07-09T06:11:24;27.80;99.90
6756;DHT22;3415;51.148;7.014;2023-07-09T06:13:51;28.00;99.90
6756;DHT22;3415;51.148;7.014;2023-07-09T06:16:20;28.20;99.90
6756;DHT22;3415;51.148;7.014;2023-07-09T06:18:47;28.40;99.90
6756;DHT22;3415;51.148;7.014;2023-07-09T06:21:14;28.50;99.90
6756;DHT22;3415;51.148;7.014;2023-07-09T06:23:41;28.60;99.90
6756;DHT22;3415;51.148;7.014;2023-07-09T06:26:08;28.80;99.90
6756;DHT22;3415;51.148;7.014;2023-07-09T06:28:35;28.80;99.90
6756;DHT22;3415;51.148;7.014;2023-07-09T06:31:02;28.90;99.90
6756;DHT22;3415;51.148;7.014;2023-07-09T06:33:30;29.00;99.90
6756;DHT22;3415;51.148;7.014;2023-07-09T06:35:59;29.10;99.90
6756;DHT22;3415;51.148;7.014;2023-07-09T06:38:28;29.20;99.90
6756;DHT22;3415;51.148;7.014;2023-07-09T06:40:56;30.00;99.90
6756;DHT22;3415;51.148;7.014;2023-07-09T06:43:23;30.30;99.90
6756;DHT22;3415;51.148;7.014;2023-07-09T06:45:52;30.70;99.90
6756;DHT22;3415;51.148;7.014;2023-07-09T06:48:21;30.40;99.90
6756;DHT22;3415;51.148;7.014;2023-07-09T06:50:51;30.60;99.90
6756;DHT22;3415;51.148;7.014;2023-07-09T06:53:19;30.60;99.90
6756;DHT22;3415;51.148;7.014;2023-07-09T06:55:46;30.80;99.90
6756;DHT22;3415;51.148;7.014;2023-07-09T06:58:15;31.00;99.90
6756;DHT22;3415;51.148;7.014;2023-07-09T07:00:43;31.00;99.90
6756;DHT22;3415;51.148;7.014;2023-07-09T07:03:10;31.40;99.90
6756;DHT22;3415;51.148;7.014;2023-07-09T07:05:43;31.70;99.90
6756;DHT22;3415;51.148;7.014;2023-07-09T07:08:13;31.90;99.90
6756;DHT22;3415;51.148;7.014;2023-07-09T07:10:42;31.90;99.90
6756;DHT22;3415;51.148;7.014;2023-07-09T07:13:09;31.80;99.90
6756;DHT22;3415;51.148;7.014;2023-07-09T07:15:37;32.20;99.90
6756;DHT22;3415;51.148;7.014;2023-07-09T07:18:05;32.50;99.90
6756;DHT22;3415;51.148;7.014;2023-07-09T07:20:33;32.90;99.90
6756;DHT22;3415;51.148;7.014;2023-07-09T07:23:00;33.30;99.90
6756;DHT22;3415;51.148;7.014;2023-07-09T07:25:28;33.30;99.90
6756;DHT22;3415;51.148;7.014;2023-07-09T07:27:56;32.90;99.90
6756;DHT22;3415;51.148;7.014;2023-07-09T07:30:22;33.10;99.90
6756;DHT22;3415;51.148;7.014;2023-07-09T07:32:49;33.20;99.90
6756;DHT22;3415;51.148;7.014;2023-07-09T07:35:17;33.60;99.90
6756;DHT22;3415;51.148;7.014;2023-07-09T07:37:44;33.80;99.90
6756;DHT22;3415;51.148;7.014;2023-07-09T07:40:11;33.70;99.90
6756;DHT22;3415;51.148;7.014;2023-07-09T07:42:40;33.90;99.90
6756;DHT22;3415;51.148;7.014;2023-07-09T07:45:08;34.40;99.90
6756;DHT22;3415;51.148;7.014;2023-07-09T07:47:35;33.90;99.90
6756;DHT22;3415;51.148;7.014;2023-07-09T07:50:03;34.10;99.90
6756;DHT22;3415;51.148;7.014;2023-07-09T07:52:30;33.90;99.90
6756;DHT22;3415;51.148;7.014;2023-07-09T07:54:57;33.90;99.90
6756;DHT22;3415;51.148;7.014;2023-07-09T07:57:25;33.60;99.90
6756;DHT22;3415;51.148;7.014;2023-07-09T07:59:54;33.60;99.90
6756;DHT22;3415;51.148;7.014;2023-07-09T08:02:21;33.60;99.90
6756;DHT22;3415;51.148;7.014;2023-07-09T08:04:48;34.60;99.90
6756;DHT22;3415;51.148;7.014;2023-07-09T08:07:17;35.20;99.90
6756;DHT22;3415;51.148;7.014;2023-07-09T08:09:45;35.80;99.90
6756;DHT22;3415;51.148;7.014;2023-07-09T08:12:13;35.80;99.90
6756;DHT22;3415;51.148;7.014;2023-07-09T08:14:42;35.70;99.90
6756;DHT22;3415;51.148;7.014;2023-07-09T08:17:13;35.70;99.90
6756;DHT22;3415;51.148;7.014;2023-07-09T08:19:47;35.70;99.90
6756;DHT22;3415;51.148;7.014;2023-07-09T08:22:16;36.20;99.90
6756;DHT22;3415;51.148;7.014;2023-07-09T08:24:46;36.00;99.90
6756;DHT22;3415;51.148;7.014;2023-07-09T08:27:13;36.00;99.90
6756;DHT22;3415;51.148;7.014;2023-07-09T08:29:40;36.20;99.90
6756;DHT22;3415;51.148;7.014;2023-07-09T08:32:08;37.00;99.90
6756;DHT22;3415;51.148;7.014;2023-07-09T08:34:38;37.20;99.90
6756;DHT22;3415;51.148;7.014;2023-07-09T08:37:06;38.00;99.90
6756;DHT22;3415;51.148;7.014;2023-07-09T08:39:34;37.90;99.90
6756;DHT22;3415;51.148;7.014;2023-07-09T08:42:03;37.90;99.90
6756;DHT22;3415;51.148;7.014;2023-07-09T08:44:58;38.20;99.90
6756;DHT22;3415;51.148;7.014;2023-07-09T08:47:36;38.00;99.90
6756;DHT22;3415;51.148;7.014;2023-07-09T08:50:12;38.50;99.90
6756;DHT22;3415;51.148;7.014;2023-07-09T08:52:43;38.50;99.90
6756;DHT22;3415;51.148;7.014;2023-07-09T08:55:12;38.80;99.90
6756;DHT22;3415;51.148;7.014;2023-07-09T08:57:43;39.10;99.90
6756;DHT22;3415;51.148;7.014;2023-07-09T09:00:15;39.10;99.90
6756;DHT22;3415;51.148;7.014;2023-07-09T09:02:51;39.30;99.90
6756;DHT22;3415;51.148;7.014;2023-07-09T09:05:21;38.70;99.90
6756;DHT22;3415;51.148;7.014;2023-07-09T09:07:54;39.20;99.90
6756;DHT22;3415;51.148;7.014;2023-07-09T09:10:29;39.50;99.90
6756;DHT22;3415;51.148;7.014;2023-07-09T09:13:08;39.60;99.90
6756;DHT22;3415;51.148;7.014;2023-07-09T09:15:39;38.60;99.90
6756;DHT22;3415;51.148;7.014;2023-07-09T09:18:22;38.40;99.90
6756;DHT22;3415;51.148;7.014;2023-07-09T09:21:01;38.30;99.90
6756;DHT22;3415;51.148;7.014;2023-07-09T09:23:38;38.40;99.90
6756;DHT22;3415;51.148;7.014;2023-07-09T09:26:14;38.70;99.90
6756;DHT22;3415;51.148;7.014;2023-07-09T09:28:43;39.60;99.90
6756;DHT22;3415;51.148;7.014;2023-07-09T09:31:11;39.50;99.90
6756;DHT22;3415;51.148;7.014;2023-07-09T09:33:41;40.00;99.90
6756;DHT22;3415;51.148;7.014;2023-07-09T09:36:17;40.00;99.90
6756;DHT22;3415;51.148;7.014;2023-07-09T09:38:46;39.60;99.90
6756;DHT22;3415;51.148;7.014;2023-07-09T09:41:17;40.00;99.90
6756;DHT22;3415;51.148;7.014;2023-07-09T09:43:47;40.60;99.90
6756;DHT22;3415;51.148;7.014;2023-07-09T09:46:17;40.40;99.90
6756;DHT22;3415;51.148;7.014;2023-07-09T09:48:47;40.60;99.90
6756;DHT22;3415;51.148;7.014;2023-07-09T09:51:17;40.50;99.90
6756;DHT22;3415;51.148;7.014;2023-07-09T09:53:48;40.60;99.90
6756;DHT22;3415;51.148;7.014;2023-07-09T09:56:20;40.50;99.90
6756;DHT22;3415;51.148;7.014;2023-07-09T09:58:52;40.80;99.90
6756;DHT22;3415;51.148;7.014;2023-07-09T10:01:26;40.10;99.90
6756;DHT22;3415;51.148;7.014;2023-07-09T10:03:56;40.10;99.90
6756;DHT22;3415;51.148;7.014;2023-07-09T10:06:33;40.30;99.90
6756;DHT22;3415;51.148;7.014;2023-07-09T10:09:08;39.40;99.90
6756;DHT22;3415;51.148;7.014;2023-07-09T10:11:45;39.60;99.90
6756;DHT22;3415;51.148;7.014;2023-07-09T10:14:24;40.40;99.90
6756;DHT22;3415;51.148;7.014;2023-07-09T10:17:00;41.00;99.90
6756;DHT22;3415;51.148;7.014;2023-07-09T10:19:37;40.70;99.90
6756;DHT22;3415;51.148;7.014;2023-07-09T10:22:15;39.90;99.90
6756;DHT22;3415;51.148;7.014;2023-07-09T10:24:53;40.80;99.90
6756;DHT22;3415;51.148;7.014;2023-07-09T10:27:30;40.30;99.90
6756;DHT22;3415;51.148;7.014;2023-07-09T10:30:14;40.30;99.90
6756;DHT22;3415;51.148;7.014;2023-07-09T10:32:55;40.80;99.90
6756;DHT22;3415;51.148;7.014;2023-07-09T10:35:32;40.70;99.90
6756;DHT22;3415;51.148;7.014;2023-07-09T10:38:14;40.80;99.90
6756;DHT22;3415;51.148;7.014;2023-07-09T10:40:49;41.30;99.90
6756;DHT22;3415;51.148;7.014;2023-07-09T10:43:23;41.30;99.90
6756;DHT22;3415;51.148;7.014;2023-07-09T10:45:59;40.90;99.90
6756;DHT22;3415;51.148;7.014;2023-07-09T10:48:33;41.40;99.90
6756;DHT22;3415;51.148;7.014;2023-07-09T10:51:02;42.20;99.90
6756;DHT22;3415;51.148;7.014;2023-07-09T10:53:36;42.50;99.90
6756;DHT22;3415;51.148;7.014;2023-07-09T10:56:10;42.70;99.90
6756;DHT22;3415;51.148;7.014;2023-07-09T10:58:43;42.70;99.90
6756;DHT22;3415;51.148;7.014;2023-07-09T11:01:21;42.30;99.90
6756;DHT22;3415;51.148;7.014;2023-07-09T11:03:58;43.00;99.90
6756;DHT22;3415;51.148;7.014;2023-07-09T11:06:32;43.40;99.90
6756;DHT22;3415;51.148;7.014;2023-07-09T11:09:05;42.50;99.90
6756;DHT22;3415;51.148;7.014;2023-07-09T11:11:42;42.60;99.90
6756;DHT22;3415;51.148;7.014;2023-07-09T11:14:25;42.80;99.90
6756;DHT22;3415;51.148;7.014;2023-07-09T11:16:56;41.90;99.90
6756;DHT22;3415;51.148;7.014;2023-07-09T11:19:25;41.70;99.90
6756;DHT22;3415;51.148;7.014;2023-07-09T11:22:02;42.00;99.90
6756;DHT22;3415;51.148;7.014;2023-07-09T11:24:35;42.70;99.90
6756;DHT22;3415;51.148;7.014;2023-07-09T11:27:17;42.20;99.90
6756;DHT22;3415;51.148;7.014;2023-07-09T11:29:46;41.30;99.90
6756;DHT22;3415;51.148;7.014;2023-07-09T11:32:20;41.40;99.90
6756;DHT22;3415;51.148;7.014;2023-07-09T11:34:48;41.60;99.90
6756;DHT22;3415;51.148;7.014;2023-07-09T11:37:16;42.00;99.90
6756;DHT22;3415;51.148;7.014;2023-07-09T11:39:47;42.10;99.90
6756;DHT22;3415;51.148;7.014;2023-07-09T11:42:30;42.30;99.90
6756;DHT22;3415;51.148;7.014;2023-07-09T11:45:02;41.30;99.90
6756;DHT22;3415;51.148;7.014;2023-07-09T11:47:36;41.00;99.90
6756;DHT22;3415;51.148;7.014;2023-07-09T11:50:07;40.00;99.90
6756;DHT22;3415;51.148;7.014;2023-07-09T11:52:45;40.00;99.90
6756;DHT22;3415;51.148;7.014;2023-07-09T11:55:28;40.50;99.90
6756;DHT22;3415;51.148;7.014;2023-07-09T11:57:57;39.90;99.90
6756;DHT22;3415;51.148;7.014;2023-07-09T12:00:27;39.30;99.90
6756;DHT22;3415;51.148;7.014;2023-07-09T12:02:57;39.50;99.90
6756;DHT22;3415;51.148;7.014;2023-07-09T12:05:27;39.10;99.90
6756;DHT22;3415;51.148;7.014;2023-07-09T12:07:55;40.30;99.90
6756;DHT22;3415;51.148;7.014;2023-07-09T12:10:27;39.70;99.90
6756;DHT22;3415;51.148;7.014;2023-07-09T12:12:55;39.70;99.90
6756;DHT22;3415;51.148;7.014;2023-07-09T12:15:25;39.70;99.90
6756;DHT22;3415;51.148;7.014;2023-07-09T12:17:54;39.70;99.90
6756;DHT22;3415;51.148;7.014;2023-07-09T12:20:22;39.00;99.90
6756;DHT22;3415;51.148;7.014;2023-07-09T12:22:49;38.90;99.90
6756;DHT22;3415;51.148;7.014;2023-07-09T12:25:22;38.50;99.90
6756;DHT22;3415;51.148;7.014;2023-07-09T12:27:52;37.90;99.90
6756;DHT22;3415;51.148;7.014;2023-07-09T12:30:19;38.10;99.90
6756;DHT22;3415;51.148;7.014;2023-07-09T12:32:49;38.10;99.90
6756;DHT22;3415;51.148;7.014;2023-07-09T12:35:18;37.70;99.90
6756;DHT22;3415;51.148;7.014;2023-07-09T12:37:48;37.70;99.90
6756;DHT22;3415;51.148;7.014;2023-07-09T12:40:17;37.30;99.90
6756;DHT22;3415;51.148;7.014;2023-07-09T12:42:48;37.30;99.90
6756;DHT22;3415;51.148;7.014;2023-07-09T12:45:20;37.30;99.90
6756;DHT22;3415;51.148;7.014;2023-07-09T12:47:49;37.30;99.90
6756;DHT22;3415;51.148;7.014;2023-07-09T12:50:30;36.50;99.90
6756;DHT22;3415;51.148;7.014;2023-07-09T12:53:02;36.50;99.90
6756;DHT22;3415;51.148;7.014;2023-07-09T12:55:38;36.00;99.90
6756;DHT22;3415;51.148;7.014;2023-07-09T12:58:09;35.60;99.90
6756;DHT22;3415;51.148;7.014;2023-07-09T13:00:39;35.40;99.90
6756;DHT22;3415;51.148;7.014;2023-07-09T13:03:13;35.30;99.90
6756;DHT22;3415;51.148;7.014;2023-07-09T13:05:52;35.00;99.90
6756;DHT22;3415;51.148;7.014;2023-07-09T13:08:20;34.80;99.90
6756;DHT22;3415;51.148;7.014;2023-07-09T13:10:47;34.80;99.90
6756;DHT22;3415;51.148;7.014;2023-07-09T13:13:19;34.90;99.90
6756;DHT22;3415;51.148;7.014;2023-07-09T13:15:52;34.90;99.90
6756;DHT22;3415;51.148;7.014;2023-07-09T13:18:22;34.90;99.90
6756;DHT22;3415;51.148;7.014;2023-07-09T13:20:52;34.90;99.90
6756;DHT22;3415;51.148;7.014;2023-07-09T13:23:23;34.80;99.90
6756;DHT22;3415;51.148;7.014;2023-07-09T13:25:52;34.60;99.90
6756;DHT22;3415;51.148;7.014;2023-07-09T13:28:23;34.70;99.90
6756;DHT22;3415;51.148;7.014;2023-07-09T13:30:56;34.70;99.90
6756;DHT22;3415;51.148;7.014;2023-07-09T13:33:24;34.70;99.90
6756;DHT22;3415;51.148;7.014;2023-07-09T13:35:51;34.50;99.90
6756;DHT22;3415;51.148;7.014;2023-07-09T13:38:21;34.10;99.90
6756;DHT22;3415;51.148;7.014;2023-07-09T13:40:51;33.70;99.90
6756;DHT22;3415;51.148;7.014;2023-07-09T13:43:28;33.50;99.90
6756;DHT22;3415;51.148;7.014;2023-07-09T13:45:58;33.30;99.90
6756;DHT22;3415;51.148;7.014;2023-07-09T13:48:29;33.20;99.90
6756;DHT22;3415;51.148;7.014;2023-07-09T13:50:57;33.10;99.90
6756;DHT22;3415;51.148;7.014;2023-07-09T13:53:27;32.80;99.90
6756;DHT22;3415;51.148;7.014;2023-07-09T13:55:56;32.80;99.90
6756;DHT22;3415;51.148;7.014;2023-07-09T13:58:26;32.70;99.90
6756;DHT22;3415;51.148;7.014;2023-07-09T14:00:58;32.50;99.90
6756;DHT22;3415;51.148;7.014;2023-07-09T14:03:31;32.50;99.90
6756;DHT22;3415;51.148;7.014;2023-07-09T14:05:59;32.40;99.90
6756;DHT22;3415;51.148;7.014;2023-07-09T14:08:26;32.30;99.90
6756;DHT22;3415;51.148;7.014;2023-07-09T14:10:54;31.80;99.90
6756;DHT22;3415;51.148;7.014;2023-07-09T14:13:23;30.90;99.90
6756;DHT22;3415;51.148;7.014;2023-07-09T14:18:21;28.00;99.90
6756;DHT22;3415;51.148;7.014;2023-07-09T14:20:49;25.90;99.90
6756;DHT22;3415;51.148;7.014;2023-07-09T14:23:18;24.50;99.90
6756;DHT22;3415;51.148;7.014;2023-07-09T14:25:46;24.60;99.90
6756;DHT22;3415;51.148;7.014;2023-07-09T14:28:16;24.10;99.90
6756;DHT22;3415;51.148;7.014;2023-07-09T14:30:44;23.80;99.90
6756;DHT22;3415;51.148;7.014;2023-07-09T14:33:13;23.40;1.00
6756;DHT22;3415;51.148;7.014;2023-07-09T14:35:44;23.40;1.00
6756;DHT22;3415;51.148;7.014;2023-07-09T14:38:16;23.20;1.00
6756;DHT22;3415;51.148;7.014;2023-07-09T14:40:45;22.90;1.00
6756;DHT22;3415;51.148;7.014;2023-07-09T14:43:12;23.00;1.00
6756;DHT22;3415;51.148;7.014;2023-07-09T14:45:40;23.00;1.00
6756;DHT22;3415;51.148;7.014;2023-07-09T14:48:12;22.90;1.00
6756;DHT22;3415;51.148;7.014;2023-07-09T14:50:41;22.90;1.00
6756;DHT22;3415;51.148;7.014;2023-07-09T14:53:13;22.70;1.00
6756;DHT22;3415;51.148;7.014;2023-07-09T14:55:41;22.70;1.00
6756;DHT22;3415;51.148;7.014;2023-07-09T14:58:15;23.00;1.00
6756;DHT22;3415;51.148;7.014;2023-07-09T15:00:44;23.00;1.00
6756;DHT22;3415;51.148;7.014;2023-07-09T15:03:17;23.00;1.00
6756;DHT22;3415;51.148;7.014;2023-07-09T15:05:47;23.20;1.00
6756;DHT22;3415;51.148;7.014;2023-07-09T15:08:16;23.20;1.00
6756;DHT22;3415;51.148;7.014;2023-07-09T15:10:45;23.20;1.00
6756;DHT22;3415;51.148;7.014;2023-07-09T15:13:18;23.20;1.00
6756;DHT22;3415;51.148;7.014;2023-07-09T15:15:46;23.20;1.00
6756;DHT22;3415;51.148;7.014;2023-07-09T15:18:14;23.30;1.00
6756;DHT22;3415;51.148;7.014;2023-07-09T15:20:49;23.30;1.00
6756;DHT22;3415;51.148;7.014;2023-07-09T15:23:17;23.40;1.00
6756;DHT22;3415;51.148;7.014;2023-07-09T15:25:47;23.50;1.00
6756;DHT22;3415;51.148;7.014;2023-07-09T15:28:14;23.60;1.00
6756;DHT22;3415;51.148;7.014;2023-07-09T15:30:41;23.50;1.00
6756;DHT22;3415;51.148;7.014;2023-07-09T15:33:13;23.50;1.00
6756;DHT22;3415;51.148;7.014;2023-07-09T15:35:43;23.50;1.00
6756;DHT22;3415;51.148;7.014;2023-07-09T15:38:21;23.50;1.00
6756;DHT22;3415;51.148;7.014;2023-07-09T15:40:53;23.40;1.00
6756;DHT22;3415;51.148;7.014;2023-07-09T15:43:20;23.40;1.00
6756;DHT22;3415;51.148;7.014;2023-07-09T15:45:50;23.40;1.00
6756;DHT22;3415;51.148;7.014;2023-07-09T15:48:22;23.40;1.00
6756;DHT22;3415;51.148;7.014;2023-07-09T15:50:52;23.40;1.00
6756;DHT22;3415;51.148;7.014;2023-07-09T15:53:21;23.60;1.00
6756;DHT22;3415;51.148;7.014;2023-07-09T15:55:48;23.80;1.00
6756;DHT22;3415;51.148;7.014;2023-07-09T15:58:24;23.80;1.00
6756;DHT22;3415;51.148;7.014;2023-07-09T16:00:52;23.90;1.00
6756;DHT22;3415;51.148;7.014;2023-07-09T16:03:19;23.90;1.00
6756;DHT22;3415;51.148;7.014;2023-07-09T16:05:46;24.00;1.00
6756;DHT22;3415;51.148;7.014;2023-07-09T16:08:13;24.00;1.00
6756;DHT22;3415;51.148;7.014;2023-07-09T16:10:42;24.10;1.00
6756;DHT22;3415;51.148;7.014;2023-07-09T16:13:17;24.40;1.00
6756;DHT22;3415;51.148;7.014;2023-07-09T16:15:45;24.60;1.00
6756;DHT22;3415;51.148;7.014;2023-07-09T16:18:12;24.90;1.00
6756;DHT22;3415;51.148;7.014;2023-07-09T16:20:41;25.20;1.00
6756;DHT22;3415;51.148;7.014;2023-07-09T16:23:14;25.50;1.00
6756;DHT22;3415;51.148;7.014;2023-07-09T16:25:44;25.60;1.00